sensor_id;sensor_type;location;lat;lon;timestamp;P1;durP1;ratioP1;P2;durP2;ratioP2
13325;SDS011;6732;51.044;3.746;2022-09-09T00:00:41;3.33;;;1.50;;
13325;SDS011;6732;51.044;3.746;2022-09-09T00:03:17;3.50;;;1.40;;
13325;SDS011;6732;51.044;3.746;2022-09-09T00:08:46;3.03;;;1.40;;
13325;SDS011;6732;51.044;3.746;2022-09-09T00:14:25;2.80;;;1.35;;
13325;SDS011;6732;51.044;3.746;2022-09-09T00:20:21;3.35;;;1.98;;
13325;SDS011;6732;51.044;3.746;2022-09-09T00:22:52;3.55;;;1.52;;
13325;SDS011;6732;51.044;3.746;2022-09-09T00:25:34;5.70;;;1.63;;
13325;SDS011;6732;51.044;3.746;2022-09-09T00:28:12;2.78;;;1.40;;
13325;SDS011;6732;51.044;3.746;2022-09-09T00:30:43;3.60;;;1.30;;
13325;SDS011;6732;51.044;3.746;2022-09-09T00:33:13;4.30;;;1.20;;
13325;SDS011;6732;51.044;3.746;2022-09-09T00:35:48;2.20;;;1.38;;
13325;SDS011;6732;51.044;3.746;2022-09-09T00:38:18;3.88;;;1.48;;
13325;SDS011;6732;51.044;3.746;2022-09-09T00:40:49;4.55;;;1.45;;
13325;SDS011;6732;51.044;3.746;2022-09-09T00:46:29;5.40;;;1.50;;
13325;SDS011;6732;51.044;3.746;2022-09-09T00:49:22;5.22;;;1.63;;
13325;SDS011;6732;51.044;3.746;2022-09-09T01:05:30;3.72;;;1.33;;
13325;SDS011;6732;51.044;3.746;2022-09-09T01:08:42;4.47;;;1.50;;
13325;SDS011;6732;51.044;3.746;2022-09-09T01:11:07;3.20;;;1.50;;
13325;SDS011;6732;51.044;3.746;2022-09-09T01:13:41;2.25;;;1.23;;
13325;SDS011;6732;51.044;3.746;2022-09-09T01:16:10;2.78;;;1.35;;
13325;SDS011;6732;51.044;3.746;2022-09-09T01:18:43;1.77;;;1.23;;
13325;SDS011;6732;51.044;3.746;2022-09-09T01:24:22;4.07;;;1.63;;
13325;SDS011;6732;51.044;3.746;2022-09-09T01:27:04;4.13;;;1.45;;
13325;SDS011;6732;51.044;3.746;2022-09-09T01:29:32;2.58;;;1.08;;
13325;SDS011;6732;51.044;3.746;2022-09-09T01:32:00;3.35;;;1.10;;
13325;SDS011;6732;51.044;3.746;2022-09-09T01:34:31;3.97;;;1.23;;
13325;SDS011;6732;51.044;3.746;2022-09-09T01:37:02;2.63;;;1.33;;
13325;SDS011;6732;51.044;3.746;2022-09-09T01:39:31;4.97;;;1.65;;
13325;SDS011;6732;51.044;3.746;2022-09-09T01:42:00;2.20;;;1.00;;
13325;SDS011;6732;51.044;3.746;2022-09-09T01:44:27;2.58;;;1.50;;
13325;SDS011;6732;51.044;3.746;2022-09-09T01:46:55;7.88;;;1.38;;
13325;SDS011;6732;51.044;3.746;2022-09-09T01:49:21;2.60;;;1.13;;
13325;SDS011;6732;51.044;3.746;2022-09-09T01:51:48;3.75;;;1.63;;
13325;SDS011;6732;51.044;3.746;2022-09-09T01:54:17;2.25;;;1.60;;
13325;SDS011;6732;51.044;3.746;2022-09-09T01:56:52;3.40;;;1.50;;
13325;SDS011;6732;51.044;3.746;2022-09-09T01:59:45;5.97;;;1.58;;
13325;SDS011;6732;51.044;3.746;2022-09-09T02:08:28;5.22;;;1.50;;
13325;SDS011;6732;51.044;3.746;2022-09-09T02:13:40;4.22;;;1.65;;
13325;SDS011;6732;51.044;3.746;2022-09-09T02:16:11;4.03;;;1.70;;
13325;SDS011;6732;51.044;3.746;2022-09-09T02:18:46;4.32;;;2.00;;
13325;SDS011;6732;51.044;3.746;2022-09-09T02:21:30;3.47;;;1.63;;
13325;SDS011;6732;51.044;3.746;2022-09-09T02:24:00;2.80;;;1.48;;
13325;SDS011;6732;51.044;3.746;2022-09-09T02:26:30;4.35;;;1.65;;
13325;SDS011;6732;51.044;3.746;2022-09-09T02:28:59;5.30;;;2.00;;
13325;SDS011;6732;51.044;3.746;2022-09-09T02:31:28;5.70;;;1.60;;
13325;SDS011;6732;51.044;3.746;2022-09-09T02:33:55;7.47;;;1.70;;
13325;SDS011;6732;51.044;3.746;2022-09-09T02:36:25;5.32;;;1.50;;
13325;SDS011;6732;51.044;3.746;2022-09-09T02:38:54;6.85;;;1.73;;
13325;SDS011;6732;51.044;3.746;2022-09-09T02:41:30;6.03;;;1.73;;
13325;SDS011;6732;51.044;3.746;2022-09-09T02:43:59;4.78;;;1.38;;
13325;SDS011;6732;51.044;3.746;2022-09-09T02:46:36;3.28;;;1.30;;
13325;SDS011;6732;51.044;3.746;2022-09-09T02:49:11;5.80;;;1.80;;
13325;SDS011;6732;51.044;3.746;2022-09-09T02:51:56;4.13;;;1.80;;
13325;SDS011;6732;51.044;3.746;2022-09-09T02:54:29;8.27;;;2.00;;
13325;SDS011;6732;51.044;3.746;2022-09-09T02:57:07;8.18;;;2.40;;
13325;SDS011;6732;51.044;3.746;2022-09-09T02:59:37;4.15;;;1.58;;
13325;SDS011;6732;51.044;3.746;2022-09-09T03:02:04;5.15;;;1.70;;
13325;SDS011;6732;51.044;3.746;2022-09-09T03:04:31;5.97;;;1.73;;
13325;SDS011;6732;51.044;3.746;2022-09-09T03:06:57;6.10;;;1.85;;
13325;SDS011;6732;51.044;3.746;2022-09-09T03:09:24;3.70;;;1.52;;
13325;SDS011;6732;51.044;3.746;2022-09-09T03:11:51;5.40;;;1.92;;
13325;SDS011;6732;51.044;3.746;2022-09-09T03:14:17;4.80;;;1.92;;
13325;SDS011;6732;51.044;3.746;2022-09-09T03:16:47;5.47;;;1.98;;
13325;SDS011;6732;51.044;3.746;2022-09-09T03:19:13;7.25;;;2.42;;
13325;SDS011;6732;51.044;3.746;2022-09-09T03:21:39;7.13;;;2.33;;
13325;SDS011;6732;51.044;3.746;2022-09-09T03:24:05;6.68;;;1.77;;
13325;SDS011;6732;51.044;3.746;2022-09-09T03:26:31;5.78;;;1.60;;
13325;SDS011;6732;51.044;3.746;2022-09-09T03:28:57;6.53;;;1.88;;
13325;SDS011;6732;51.044;3.746;2022-09-09T03:31:26;6.57;;;1.80;;
13325;SDS011;6732;51.044;3.746;2022-09-09T03:33:56;4.65;;;1.58;;
13325;SDS011;6732;51.044;3.746;2022-09-09T03:36:23;5.47;;;1.38;;
13325;SDS011;6732;51.044;3.746;2022-09-09T03:38:53;5.85;;;1.80;;
13325;SDS011;6732;51.044;3.746;2022-09-09T03:41:20;7.45;;;1.63;;
13325;SDS011;6732;51.044;3.746;2022-09-09T03:43:51;7.43;;;2.17;;
13325;SDS011;6732;51.044;3.746;2022-09-09T03:46:21;6.28;;;1.77;;
13325;SDS011;6732;51.044;3.746;2022-09-09T03:48:49;5.50;;;1.63;;
13325;SDS011;6732;51.044;3.746;2022-09-09T03:51:15;7.03;;;1.90;;
13325;SDS011;6732;51.044;3.746;2022-09-09T03:53:42;5.82;;;1.98;;
13325;SDS011;6732;51.044;3.746;2022-09-09T03:56:08;7.55;;;1.88;;
13325;SDS011;6732;51.044;3.746;2022-09-09T03:58:35;6.60;;;1.98;;
13325;SDS011;6732;51.044;3.746;2022-09-09T04:01:03;8.25;;;2.22;;
13325;SDS011;6732;51.044;3.746;2022-09-09T04:03:31;5.90;;;2.28;;
13325;SDS011;6732;51.044;3.746;2022-09-09T04:05:58;4.22;;;2.17;;
13325;SDS011;6732;51.044;3.746;2022-09-09T04:08:27;7.97;;;2.40;;
13325;SDS011;6732;51.044;3.746;2022-09-09T04:10:53;7.97;;;2.97;;
13325;SDS011;6732;51.044;3.746;2022-09-09T04:13:23;10.50;;;3.03;;
13325;SDS011;6732;51.044;3.746;2022-09-09T04:15:54;8.88;;;2.75;;
13325;SDS011;6732;51.044;3.746;2022-09-09T04:18:21;5.90;;;2.00;;
13325;SDS011;6732;51.044;3.746;2022-09-09T04:20:48;8.05;;;2.42;;
13325;SDS011;6732;51.044;3.746;2022-09-09T04:23:15;12.15;;;2.38;;
13325;SDS011;6732;51.044;3.746;2022-09-09T04:25:44;8.10;;;2.25;;
13325;SDS011;6732;51.044;3.746;2022-09-09T04:28:12;10.98;;;2.50;;
13325;SDS011;6732;51.044;3.746;2022-09-09T04:30:39;7.90;;;1.73;;
13325;SDS011;6732;51.044;3.746;2022-09-09T04:33:05;7.43;;;2.50;;
13325;SDS011;6732;51.044;3.746;2022-09-09T04:35:32;6.38;;;1.85;;
13325;SDS011;6732;51.044;3.746;2022-09-09T04:37:58;11.85;;;2.40;;
13325;SDS011;6732;51.044;3.746;2022-09-09T04:40:24;6.20;;;1.90;;
13325;SDS011;6732;51.044;3.746;2022-09-09T04:42:50;9.50;;;2.40;;
13325;SDS011;6732;51.044;3.746;2022-09-09T04:45:16;6.28;;;1.83;;
13325;SDS011;6732;51.044;3.746;2022-09-09T04:47:43;8.07;;;2.45;;
13325;SDS011;6732;51.044;3.746;2022-09-09T04:50:09;6.88;;;2.53;;
13325;SDS011;6732;51.044;3.746;2022-09-09T04:52:35;7.68;;;2.17;;
13325;SDS011;6732;51.044;3.746;2022-09-09T04:55:02;6.32;;;1.75;;
13325;SDS011;6732;51.044;3.746;2022-09-09T04:57:28;5.07;;;2.00;;
13325;SDS011;6732;51.044;3.746;2022-09-09T04:59:57;6.68;;;1.90;;
13325;SDS011;6732;51.044;3.746;2022-09-09T05:02:25;6.55;;;1.95;;
13325;SDS011;6732;51.044;3.746;2022-09-09T05:04:52;6.88;;;2.13;;
13325;SDS011;6732;51.044;3.746;2022-09-09T05:07:18;9.50;;;2.58;;
13325;SDS011;6732;51.044;3.746;2022-09-09T05:09:44;9.77;;;2.28;;
13325;SDS011;6732;51.044;3.746;2022-09-09T05:12:10;7.32;;;2.33;;
13325;SDS011;6732;51.044;3.746;2022-09-09T05:14:36;8.77;;;2.00;;
13325;SDS011;6732;51.044;3.746;2022-09-09T05:17:03;6.90;;;2.35;;
13325;SDS011;6732;51.044;3.746;2022-09-09T05:19:29;8.60;;;2.17;;
13325;SDS011;6732;51.044;3.746;2022-09-09T05:21:56;8.95;;;2.35;;
13325;SDS011;6732;51.044;3.746;2022-09-09T05:24:22;9.20;;;2.55;;
13325;SDS011;6732;51.044;3.746;2022-09-09T05:26:48;5.85;;;2.33;;
13325;SDS011;6732;51.044;3.746;2022-09-09T05:29:14;7.70;;;2.30;;
13325;SDS011;6732;51.044;3.746;2022-09-09T05:31:42;8.55;;;2.13;;
13325;SDS011;6732;51.044;3.746;2022-09-09T05:34:08;8.30;;;2.60;;
13325;SDS011;6732;51.044;3.746;2022-09-09T05:36:34;7.20;;;2.55;;
13325;SDS011;6732;51.044;3.746;2022-09-09T05:39:00;6.32;;;2.47;;
13325;SDS011;6732;51.044;3.746;2022-09-09T05:41:26;9.60;;;2.72;;
13325;SDS011;6732;51.044;3.746;2022-09-09T05:43:54;6.35;;;2.40;;
13325;SDS011;6732;51.044;3.746;2022-09-09T05:46:20;6.40;;;2.75;;
13325;SDS011;6732;51.044;3.746;2022-09-09T05:48:48;6.05;;;2.30;;
13325;SDS011;6732;51.044;3.746;2022-09-09T05:51:22;9.52;;;2.55;;
13325;SDS011;6732;51.044;3.746;2022-09-09T05:53:50;8.73;;;2.42;;
13325;SDS011;6732;51.044;3.746;2022-09-09T05:56:21;7.63;;;2.42;;
13325;SDS011;6732;51.044;3.746;2022-09-09T05:58:50;7.07;;;2.30;;
13325;SDS011;6732;51.044;3.746;2022-09-09T06:01:18;5.38;;;1.95;;
13325;SDS011;6732;51.044;3.746;2022-09-09T06:03:47;10.48;;;2.25;;
13325;SDS011;6732;51.044;3.746;2022-09-09T06:06:15;5.60;;;2.00;;
13325;SDS011;6732;51.044;3.746;2022-09-09T06:08:43;8.25;;;2.70;;
13325;SDS011;6732;51.044;3.746;2022-09-09T06:11:12;6.82;;;1.90;;
13325;SDS011;6732;51.044;3.746;2022-09-09T06:13:40;6.95;;;2.25;;
13325;SDS011;6732;51.044;3.746;2022-09-09T06:16:09;10.40;;;2.00;;
13325;SDS011;6732;51.044;3.746;2022-09-09T06:18:37;8.65;;;2.28;;
13325;SDS011;6732;51.044;3.746;2022-09-09T06:21:05;6.32;;;2.15;;
13325;SDS011;6732;51.044;3.746;2022-09-09T06:23:33;8.30;;;2.15;;
13325;SDS011;6732;51.044;3.746;2022-09-09T06:26:05;8.23;;;2.25;;
13325;SDS011;6732;51.044;3.746;2022-09-09T06:28:34;9.90;;;2.22;;
13325;SDS011;6732;51.044;3.746;2022-09-09T06:31:03;5.22;;;1.88;;
13325;SDS011;6732;51.044;3.746;2022-09-09T06:33:31;8.85;;;2.47;;
13325;SDS011;6732;51.044;3.746;2022-09-09T06:36:00;8.13;;;2.47;;
13325;SDS011;6732;51.044;3.746;2022-09-09T06:38:26;7.25;;;2.17;;
13325;SDS011;6732;51.044;3.746;2022-09-09T06:40:53;8.98;;;2.65;;
13325;SDS011;6732;51.044;3.746;2022-09-09T06:43:24;8.93;;;2.70;;
13325;SDS011;6732;51.044;3.746;2022-09-09T06:46:04;8.13;;;3.00;;
13325;SDS011;6732;51.044;3.746;2022-09-09T06:48:33;9.80;;;3.03;;
13325;SDS011;6732;51.044;3.746;2022-09-09T06:51:00;7.50;;;2.90;;
13325;SDS011;6732;51.044;3.746;2022-09-09T06:53:30;9.07;;;2.55;;
13325;SDS011;6732;51.044;3.746;2022-09-09T06:55:59;12.25;;;2.85;;
13325;SDS011;6732;51.044;3.746;2022-09-09T06:58:47;9.65;;;2.78;;
13325;SDS011;6732;51.044;3.746;2022-09-09T07:01:15;7.72;;;2.92;;
13325;SDS011;6732;51.044;3.746;2022-09-09T07:03:45;8.65;;;3.10;;
13325;SDS011;6732;51.044;3.746;2022-09-09T07:06:14;8.80;;;2.78;;
13325;SDS011;6732;51.044;3.746;2022-09-09T07:08:42;9.07;;;2.65;;
13325;SDS011;6732;51.044;3.746;2022-09-09T07:11:09;8.48;;;3.08;;
13325;SDS011;6732;51.044;3.746;2022-09-09T07:13:36;6.57;;;2.42;;
13325;SDS011;6732;51.044;3.746;2022-09-09T07:16:06;4.80;;;2.00;;
13325;SDS011;6732;51.044;3.746;2022-09-09T07:18:33;7.40;;;2.75;;
13325;SDS011;6732;51.044;3.746;2022-09-09T07:21:00;6.60;;;2.80;;
13325;SDS011;6732;51.044;3.746;2022-09-09T07:23:27;6.63;;;2.30;;
13325;SDS011;6732;51.044;3.746;2022-09-09T07:25:54;9.43;;;2.30;;
13325;SDS011;6732;51.044;3.746;2022-09-09T07:28:20;6.50;;;2.17;;
13325;SDS011;6732;51.044;3.746;2022-09-09T07:30:57;9.80;;;2.45;;
13325;SDS011;6732;51.044;3.746;2022-09-09T07:33:25;9.18;;;2.20;;
13325;SDS011;6732;51.044;3.746;2022-09-09T07:35:51;5.22;;;2.00;;
13325;SDS011;6732;51.044;3.746;2022-09-09T07:38:18;7.13;;;2.42;;
13325;SDS011;6732;51.044;3.746;2022-09-09T07:40:45;5.80;;;2.10;;
13325;SDS011;6732;51.044;3.746;2022-09-09T07:43:12;7.85;;;2.28;;
13325;SDS011;6732;51.044;3.746;2022-09-09T07:45:38;6.20;;;2.28;;
13325;SDS011;6732;51.044;3.746;2022-09-09T07:48:05;5.85;;;2.17;;
13325;SDS011;6732;51.044;3.746;2022-09-09T07:50:31;5.75;;;2.88;;
13325;SDS011;6732;51.044;3.746;2022-09-09T07:52:57;8.30;;;2.55;;
13325;SDS011;6732;51.044;3.746;2022-09-09T07:55:25;6.80;;;2.10;;
13325;SDS011;6732;51.044;3.746;2022-09-09T07:57:55;7.60;;;2.30;;
13325;SDS011;6732;51.044;3.746;2022-09-09T08:00:21;9.27;;;2.30;;
13325;SDS011;6732;51.044;3.746;2022-09-09T08:03:02;8.25;;;2.33;;
13325;SDS011;6732;51.044;3.746;2022-09-09T08:08:04;7.68;;;2.10;;
13325;SDS011;6732;51.044;3.746;2022-09-09T08:10:33;8.07;;;2.10;;
13325;SDS011;6732;51.044;3.746;2022-09-09T08:12:59;5.82;;;2.03;;
13325;SDS011;6732;51.044;3.746;2022-09-09T08:15:25;5.15;;;1.98;;
13325;SDS011;6732;51.044;3.746;2022-09-09T08:17:51;5.78;;;2.10;;
13325;SDS011;6732;51.044;3.746;2022-09-09T08:20:17;6.35;;;2.10;;
13325;SDS011;6732;51.044;3.746;2022-09-09T08:22:43;8.13;;;2.08;;
13325;SDS011;6732;51.044;3.746;2022-09-09T08:25:09;5.57;;;1.90;;
13325;SDS011;6732;51.044;3.746;2022-09-09T08:27:35;4.20;;;1.67;;
13325;SDS011;6732;51.044;3.746;2022-09-09T08:30:02;4.38;;;1.70;;
13325;SDS011;6732;51.044;3.746;2022-09-09T08:32:28;6.63;;;2.10;;
13325;SDS011;6732;51.044;3.746;2022-09-09T08:34:54;3.92;;;1.60;;
13325;SDS011;6732;51.044;3.746;2022-09-09T08:37:20;5.50;;;2.20;;
13325;SDS011;6732;51.044;3.746;2022-09-09T08:39:46;4.18;;;1.98;;
13325;SDS011;6732;51.044;3.746;2022-09-09T08:50:26;4.82;;;1.90;;
13325;SDS011;6732;51.044;3.746;2022-09-09T08:53:02;3.95;;;1.67;;
13325;SDS011;6732;51.044;3.746;2022-09-09T08:55:40;4.15;;;1.60;;
13325;SDS011;6732;51.044;3.746;2022-09-09T08:58:17;6.70;;;1.88;;
13325;SDS011;6732;51.044;3.746;2022-09-09T09:00:55;5.38;;;1.90;;
13325;SDS011;6732;51.044;3.746;2022-09-09T09:03:35;6.93;;;2.17;;
13325;SDS011;6732;51.044;3.746;2022-09-09T09:06:26;5.53;;;1.85;;
13325;SDS011;6732;51.044;3.746;2022-09-09T09:11:39;5.55;;;1.98;;
13325;SDS011;6732;51.044;3.746;2022-09-09T09:16:57;3.67;;;1.70;;
13325;SDS011;6732;51.044;3.746;2022-09-09T09:19:50;3.50;;;1.75;;
13325;SDS011;6732;51.044;3.746;2022-09-09T09:22:21;5.60;;;1.90;;
13325;SDS011;6732;51.044;3.746;2022-09-09T09:24:54;8.43;;;2.03;;
13325;SDS011;6732;51.044;3.746;2022-09-09T09:27:31;5.68;;;2.05;;
13325;SDS011;6732;51.044;3.746;2022-09-09T09:30:04;6.10;;;1.90;;
13325;SDS011;6732;51.044;3.746;2022-09-09T09:32:39;4.70;;;1.77;;
13325;SDS011;6732;51.044;3.746;2022-09-09T09:35:12;4.03;;;1.73;;
13325;SDS011;6732;51.044;3.746;2022-09-09T09:37:39;5.03;;;2.00;;
13325;SDS011;6732;51.044;3.746;2022-09-09T09:40:16;5.35;;;1.80;;
13325;SDS011;6732;51.044;3.746;2022-09-09T09:43:02;4.50;;;2.00;;
13325;SDS011;6732;51.044;3.746;2022-09-09T09:48:13;7.10;;;2.15;;
13325;SDS011;6732;51.044;3.746;2022-09-09T09:50:51;5.80;;;2.03;;
13325;SDS011;6732;51.044;3.746;2022-09-09T09:55:53;5.13;;;1.75;;
13325;SDS011;6732;51.044;3.746;2022-09-09T09:58:26;5.40;;;1.90;;
13325;SDS011;6732;51.044;3.746;2022-09-09T10:00:56;6.07;;;2.25;;
13325;SDS011;6732;51.044;3.746;2022-09-09T10:03:24;4.38;;;2.20;;
13325;SDS011;6732;51.044;3.746;2022-09-09T10:05:52;7.78;;;2.00;;
13325;SDS011;6732;51.044;3.746;2022-09-09T10:08:19;3.15;;;1.60;;
13325;SDS011;6732;51.044;3.746;2022-09-09T10:29:33;5.03;;;1.80;;
13325;SDS011;6732;51.044;3.746;2022-09-09T10:43:07;2.45;;;1.42;;
13325;SDS011;6732;51.044;3.746;2022-09-09T10:45:41;5.05;;;1.48;;
13325;SDS011;6732;51.044;3.746;2022-09-09T10:48:24;5.55;;;1.70;;
13325;SDS011;6732;51.044;3.746;2022-09-09T10:56:20;3.75;;;1.40;;
13325;SDS011;6732;51.044;3.746;2022-09-09T11:03:52;4.82;;;1.58;;
13325;SDS011;6732;51.044;3.746;2022-09-09T11:06:25;5.32;;;1.60;;
13325;SDS011;6732;51.044;3.746;2022-09-09T11:08:58;3.60;;;1.73;;
13325;SDS011;6732;51.044;3.746;2022-09-09T11:11:32;4.38;;;1.60;;
13325;SDS011;6732;51.044;3.746;2022-09-09T11:16:40;4.57;;;1.50;;
13325;SDS011;6732;51.044;3.746;2022-09-09T11:19:28;3.60;;;1.40;;
13325;SDS011;6732;51.044;3.746;2022-09-09T11:22:25;2.63;;;1.55;;
13325;SDS011;6732;51.044;3.746;2022-09-09T11:25:15;3.47;;;1.60;;
13325;SDS011;6732;51.044;3.746;2022-09-09T11:40:00;3.20;;;1.13;;
13325;SDS011;6732;51.044;3.746;2022-09-09T11:42:39;4.20;;;1.27;;
13325;SDS011;6732;51.044;3.746;2022-09-09T11:47:51;2.35;;;1.27;;
13325;SDS011;6732;51.044;3.746;2022-09-09T11:52:47;2.42;;;1.45;;
13325;SDS011;6732;51.044;3.746;2022-09-09T11:55:28;1.88;;;0.95;;
13325;SDS011;6732;51.044;3.746;2022-09-09T11:58:01;4.65;;;1.40;;
13325;SDS011;6732;51.044;3.746;2022-09-09T12:00:39;2.15;;;1.38;;
13325;SDS011;6732;51.044;3.746;2022-09-09T12:06:08;2.38;;;1.30;;
13325;SDS011;6732;51.044;3.746;2022-09-09T12:08:40;4.80;;;1.50;;
13325;SDS011;6732;51.044;3.746;2022-09-09T12:11:08;3.85;;;1.25;;
13325;SDS011;6732;51.044;3.746;2022-09-09T12:13:34;1.60;;;1.15;;
13325;SDS011;6732;51.044;3.746;2022-09-09T12:16:01;3.70;;;1.42;;
13325;SDS011;6732;51.044;3.746;2022-09-09T12:23:54;2.95;;;1.10;;
13325;SDS011;6732;51.044;3.746;2022-09-09T12:29:09;4.82;;;1.42;;
13325;SDS011;6732;51.044;3.746;2022-09-09T12:34:33;3.08;;;1.27;;
13325;SDS011;6732;51.044;3.746;2022-09-09T12:37:14;4.88;;;1.20;;
13325;SDS011;6732;51.044;3.746;2022-09-09T12:39:49;3.03;;;1.20;;
13325;SDS011;6732;51.044;3.746;2022-09-09T12:42:20;3.00;;;1.20;;
13325;SDS011;6732;51.044;3.746;2022-09-09T12:45:14;5.03;;;1.33;;
13325;SDS011;6732;51.044;3.746;2022-09-09T12:47:52;2.40;;;1.50;;
13325;SDS011;6732;51.044;3.746;2022-09-09T12:50:22;2.42;;;1.10;;
13325;SDS011;6732;51.044;3.746;2022-09-09T12:52:54;4.15;;;1.55;;
13325;SDS011;6732;51.044;3.746;2022-09-09T12:55:24;4.18;;;1.35;;
13325;SDS011;6732;51.044;3.746;2022-09-09T12:57:55;4.28;;;1.50;;
13325;SDS011;6732;51.044;3.746;2022-09-09T13:00:24;7.28;;;1.52;;
13325;SDS011;6732;51.044;3.746;2022-09-09T13:02:53;4.40;;;1.50;;
13325;SDS011;6732;51.044;3.746;2022-09-09T13:08:11;3.55;;;1.48;;
13325;SDS011;6732;51.044;3.746;2022-09-09T13:13:14;3.40;;;1.40;;
13325;SDS011;6732;51.044;3.746;2022-09-09T13:15:53;3.47;;;1.33;;
13325;SDS011;6732;51.044;3.746;2022-09-09T13:18:22;2.40;;;1.42;;
13325;SDS011;6732;51.044;3.746;2022-09-09T13:20:52;4.65;;;1.67;;
13325;SDS011;6732;51.044;3.746;2022-09-09T13:23:18;2.45;;;1.52;;
13325;SDS011;6732;51.044;3.746;2022-09-09T13:26:02;4.30;;;1.60;;
13325;SDS011;6732;51.044;3.746;2022-09-09T13:28:31;3.42;;;1.55;;
13325;SDS011;6732;51.044;3.746;2022-09-09T13:30:59;4.70;;;1.40;;
13325;SDS011;6732;51.044;3.746;2022-09-09T13:33:43;2.55;;;1.42;;
13325;SDS011;6732;51.044;3.746;2022-09-09T13:36:09;4.32;;;1.40;;
13325;SDS011;6732;51.044;3.746;2022-09-09T13:38:52;3.33;;;1.65;;
13325;SDS011;6732;51.044;3.746;2022-09-09T13:41:23;5.60;;;1.40;;
13325;SDS011;6732;51.044;3.746;2022-09-09T13:44:00;3.47;;;1.35;;
13325;SDS011;6732;51.044;3.746;2022-09-09T13:46:31;3.08;;;1.40;;
13325;SDS011;6732;51.044;3.746;2022-09-09T13:51:37;3.25;;;1.15;;
13325;SDS011;6732;51.044;3.746;2022-09-09T13:54:10;3.08;;;1.08;;
13325;SDS011;6732;51.044;3.746;2022-09-09T13:56:37;2.40;;;1.20;;
13325;SDS011;6732;51.044;3.746;2022-09-09T13:59:05;2.70;;;1.30;;
13325;SDS011;6732;51.044;3.746;2022-09-09T14:01:35;3.85;;;1.20;;
13325;SDS011;6732;51.044;3.746;2022-09-09T14:04:03;1.52;;;1.08;;
13325;SDS011;6732;51.044;3.746;2022-09-09T14:06:32;2.55;;;1.10;;
13325;SDS011;6732;51.044;3.746;2022-09-09T14:09:00;3.78;;;1.38;;
13325;SDS011;6732;51.044;3.746;2022-09-09T14:11:26;3.58;;;1.10;;
13325;SDS011;6732;51.044;3.746;2022-09-09T14:13:52;3.60;;;1.17;;
13325;SDS011;6732;51.044;3.746;2022-09-09T14:16:18;1.35;;;1.15;;
13325;SDS011;6732;51.044;3.746;2022-09-09T14:18:45;3.38;;;1.40;;
13325;SDS011;6732;51.044;3.746;2022-09-09T14:21:11;3.45;;;1.20;;
13325;SDS011;6732;51.044;3.746;2022-09-09T14:23:37;2.42;;;1.58;;
13325;SDS011;6732;51.044;3.746;2022-09-09T14:26:07;2.15;;;1.30;;
13325;SDS011;6732;51.044;3.746;2022-09-09T14:28:34;3.42;;;1.50;;
13325;SDS011;6732;51.044;3.746;2022-09-09T14:31:02;1.77;;;1.63;;
13325;SDS011;6732;51.044;3.746;2022-09-09T14:33:29;2.90;;;1.25;;
13325;SDS011;6732;51.044;3.746;2022-09-09T14:35:56;2.42;;;1.20;;
13325;SDS011;6732;51.044;3.746;2022-09-09T14:38:23;3.85;;;1.33;;
13325;SDS011;6732;51.044;3.746;2022-09-09T14:40:50;1.33;;;1.10;;
13325;SDS011;6732;51.044;3.746;2022-09-09T14:43:16;2.25;;;1.70;;
13325;SDS011;6732;51.044;3.746;2022-09-09T14:45:41;2.67;;;1.50;;
13325;SDS011;6732;51.044;3.746;2022-09-09T14:48:08;3.10;;;1.30;;
13325;SDS011;6732;51.044;3.746;2022-09-09T14:50:34;5.00;;;1.70;;
13325;SDS011;6732;51.044;3.746;2022-09-09T14:53:05;5.38;;;1.30;;
13325;SDS011;6732;51.044;3.746;2022-09-09T14:55:31;2.88;;;1.20;;
13325;SDS011;6732;51.044;3.746;2022-09-09T14:57:57;3.10;;;1.30;;
13325;SDS011;6732;51.044;3.746;2022-09-09T15:00:24;3.92;;;1.30;;
13325;SDS011;6732;51.044;3.746;2022-09-09T15:02:53;1.85;;;1.00;;
13325;SDS011;6732;51.044;3.746;2022-09-09T15:05:20;2.42;;;1.20;;
13325;SDS011;6732;51.044;3.746;2022-09-09T15:07:46;2.38;;;1.10;;
13325;SDS011;6732;51.044;3.746;2022-09-09T15:10:13;2.17;;;0.90;;
13325;SDS011;6732;51.044;3.746;2022-09-09T15:12:40;2.05;;;1.10;;
13325;SDS011;6732;51.044;3.746;2022-09-09T15:15:07;3.67;;;1.30;;
13325;SDS011;6732;51.044;3.746;2022-09-09T15:17:33;4.50;;;1.30;;
13325;SDS011;6732;51.044;3.746;2022-09-09T15:20:02;2.42;;;1.10;;
13325;SDS011;6732;51.044;3.746;2022-09-09T15:22:31;3.05;;;1.25;;
13325;SDS011;6732;51.044;3.746;2022-09-09T15:24:57;1.83;;;0.90;;
13325;SDS011;6732;51.044;3.746;2022-09-09T15:27:23;3.78;;;1.30;;
13325;SDS011;6732;51.044;3.746;2022-09-09T15:29:49;1.55;;;1.00;;
13325;SDS011;6732;51.044;3.746;2022-09-09T15:32:17;2.33;;;1.08;;
13325;SDS011;6732;51.044;3.746;2022-09-09T15:34:43;3.25;;;1.00;;
13325;SDS011;6732;51.044;3.746;2022-09-09T15:37:10;3.20;;;1.08;;
13325;SDS011;6732;51.044;3.746;2022-09-09T15:39:38;3.72;;;1.20;;
13325;SDS011;6732;51.044;3.746;2022-09-09T15:42:06;3.15;;;0.93;;
13325;SDS011;6732;51.044;3.746;2022-09-09T15:44:40;1.90;;;1.08;;
13325;SDS011;6732;51.044;3.746;2022-09-09T15:47:08;4.28;;;1.00;;
13325;SDS011;6732;51.044;3.746;2022-09-09T15:49:37;2.65;;;0.93;;
13325;SDS011;6732;51.044;3.746;2022-09-09T15:52:04;2.30;;;1.00;;
13325;SDS011;6732;51.044;3.746;2022-09-09T15:54:34;5.32;;;1.00;;
13325;SDS011;6732;51.044;3.746;2022-09-09T15:57:04;2.00;;;1.13;;
13325;SDS011;6732;51.044;3.746;2022-09-09T15:59:31;2.17;;;1.33;;
13325;SDS011;6732;51.044;3.746;2022-09-09T16:01:59;3.85;;;1.33;;
13325;SDS011;6732;51.044;3.746;2022-09-09T16:04:25;1.52;;;1.42;;
13325;SDS011;6732;51.044;3.746;2022-09-09T16:09:23;2.03;;;1.27;;
13325;SDS011;6732;51.044;3.746;2022-09-09T16:11:49;2.92;;;1.38;;
13325;SDS011;6732;51.044;3.746;2022-09-09T16:14:16;2.72;;;1.55;;
13325;SDS011;6732;51.044;3.746;2022-09-09T16:16:43;1.98;;;1.27;;
13325;SDS011;6732;51.044;3.746;2022-09-09T16:19:10;3.47;;;1.70;;
13325;SDS011;6732;51.044;3.746;2022-09-09T16:21:45;3.20;;;1.60;;
13325;SDS011;6732;51.044;3.746;2022-09-09T16:24:14;2.00;;;1.40;;
13325;SDS011;6732;51.044;3.746;2022-09-09T16:26:43;6.22;;;1.40;;
13325;SDS011;6732;51.044;3.746;2022-09-09T16:29:11;2.67;;;1.30;;
13325;SDS011;6732;51.044;3.746;2022-09-09T16:31:39;4.28;;;1.80;;
13325;SDS011;6732;51.044;3.746;2022-09-09T16:34:06;2.88;;;1.48;;
13325;SDS011;6732;51.044;3.746;2022-09-09T16:36:33;3.45;;;1.75;;
13325;SDS011;6732;51.044;3.746;2022-09-09T16:39:01;5.75;;;1.80;;
13325;SDS011;6732;51.044;3.746;2022-09-09T16:41:30;3.50;;;1.60;;
13325;SDS011;6732;51.044;3.746;2022-09-09T16:43:58;5.43;;;2.25;;
13325;SDS011;6732;51.044;3.746;2022-09-09T16:46:26;1.90;;;1.70;;
13325;SDS011;6732;51.044;3.746;2022-09-09T16:48:56;4.50;;;1.60;;
13325;SDS011;6732;51.044;3.746;2022-09-09T16:51:25;3.45;;;1.50;;
13325;SDS011;6732;51.044;3.746;2022-09-09T16:54:03;7.07;;;1.55;;
13325;SDS011;6732;51.044;3.746;2022-09-09T16:56:33;3.80;;;1.50;;
13325;SDS011;6732;51.044;3.746;2022-09-09T16:59:03;3.78;;;1.50;;
13325;SDS011;6732;51.044;3.746;2022-09-09T17:01:32;4.10;;;1.40;;
13325;SDS011;6732;51.044;3.746;2022-09-09T17:04:05;3.78;;;1.80;;
13325;SDS011;6732;51.044;3.746;2022-09-09T17:06:36;3.65;;;1.70;;
13325;SDS011;6732;51.044;3.746;2022-09-09T17:09:05;3.63;;;1.80;;
13325;SDS011;6732;51.044;3.746;2022-09-09T17:11:32;4.38;;;1.67;;
13325;SDS011;6732;51.044;3.746;2022-09-09T17:13:59;6.95;;;2.72;;
13325;SDS011;6732;51.044;3.746;2022-09-09T17:16:27;9.20;;;3.25;;
13325;SDS011;6732;51.044;3.746;2022-09-09T17:18:55;8.57;;;2.92;;
13325;SDS011;6732;51.044;3.746;2022-09-09T17:21:22;9.05;;;2.70;;
13325;SDS011;6732;51.044;3.746;2022-09-09T17:23:51;7.40;;;2.85;;
13325;SDS011;6732;51.044;3.746;2022-09-09T17:26:18;7.38;;;2.88;;
13325;SDS011;6732;51.044;3.746;2022-09-09T17:28:46;4.82;;;2.10;;
13325;SDS011;6732;51.044;3.746;2022-09-09T17:31:16;3.92;;;1.90;;
13325;SDS011;6732;51.044;3.746;2022-09-09T17:33:44;7.38;;;2.30;;
13325;SDS011;6732;51.044;3.746;2022-09-09T17:38:42;4.50;;;2.30;;
13325;SDS011;6732;51.044;3.746;2022-09-09T17:41:10;4.05;;;2.22;;
13325;SDS011;6732;51.044;3.746;2022-09-09T17:43:41;7.15;;;2.35;;